Time;durP1;ratioP1;P1;durP2;ratioP2;P2;SDS_P1;SDS_P2;PMS_P1;PMS_P2;Temp;Humidity;BMP_temperature;BMP_pressure;BME280_temperature;BME280_humidity;BME280_pressure;Samples;Min_cycle;Max_cycle;Signal;HPM_P1;HPM_P2
2022/12/07 00:01:27;;;;;;;38.87;25.07;;;;;;;7.24;100.00;94877.72;5113099;28;20479;-81
2022/12/07 00:03:57;;;;;;;44.97;26.40;;;;;;;7.34;100.00;94881.31;5112814;28;20481;-80
2022/12/07 00:06:24;;;;;;;41.87;26.30;;;;;;;7.36;100.00;94882.03;5113223;28;20541;-80
2022/12/07 00:08:50;;;;;;;38.27;25.17;;;;;;;7.36;100.00;94879.44;5112880;28;20445;-81
2022/12/07 00:11:19;;;;;;;51.90;26.60;;;;;;;7.34;99.79;94883.94;5076752;28;20484;-80
2022/12/07 00:13:47;;;;;;;52.23;30.37;;;;;;;7.33;99.26;94884.88;5112720;28;20441;-79
2022/12/07 00:16:16;;;;;;;53.47;35.00;;;;;;;7.29;99.51;94885.22;5113060;28;20445;-80
2022/12/07 00:18:45;;;;;;;57.60;32.67;;;;;;;7.25;99.64;94882.00;5112721;28;20450;-80
2022/12/07 00:21:13;;;;;;;44.90;29.87;;;;;;;7.19;99.83;94871.13;5112883;28;20480;-81
2022/12/07 00:23:41;;;;;;;50.30;28.43;;;;;;;7.18;100.00;94870.31;5113075;28;20437;-80
2022/12/07 00:26:10;;;;;;;54.80;30.97;;;;;;;7.20;100.00;94878.03;5112786;28;20503;-80
2022/12/07 00:28:37;;;;;;;43.10;26.87;;;;;;;7.23;100.00;94868.22;5112618;28;20453;-81
2022/12/07 00:31:06;;;;;;;50.67;29.83;;;;;;;7.27;100.00;94867.06;5112734;28;20484;-80
2022/12/07 00:33:33;;;;;;;57.23;30.87;;;;;;;7.31;99.33;94868.50;5112623;28;20479;-80
2022/12/07 00:36:02;;;;;;;44.50;28.60;;;;;;;7.34;99.27;94860.44;5112963;28;20844;-80
2022/12/07 00:38:30;;;;;;;42.07;25.77;;;;;;;7.37;98.53;94867.22;5112798;28;20445;-80
2022/12/07 00:40:58;;;;;;;46.83;26.70;;;;;;;7.37;98.42;94869.81;5112454;28;20847;-80
2022/12/07 00:43:25;;;;;;;49.43;27.93;;;;;;;7.37;98.78;94868.03;5112869;28;20481;-80
2022/12/07 00:45:52;;;;;;;61.37;41.00;;;;;;;7.39;99.03;94868.75;5112647;28;20453;-80
2022/12/07 00:48:19;;;;;;;75.57;48.17;;;;;;;7.40;98.82;94874.81;5112681;28;21143;-80
2022/12/07 00:50:46;;;;;;;94.57;49.87;;;;;;;7.36;98.68;94874.22;5112620;28;20479;-80
2022/12/07 00:53:15;;;;;;;92.50;52.30;;;;;;;7.34;98.43;94862.22;5112645;28;20950;-80
2022/12/07 00:55:42;;;;;;;87.20;46.90;;;;;;;7.32;98.81;94864.94;5112547;28;20457;-80
2022/12/07 00:58:09;;;;;;;86.10;43.80;;;;;;;7.31;99.20;94854.59;5060039;28;20805;-80
2022/12/07 01:00:38;;;;;;;85.00;47.47;;;;;;;7.29;99.02;94853.88;5112513;28;20463;-80
2022/12/07 01:03:05;;;;;;;83.03;43.70;;;;;;;7.26;99.66;94844.50;5112286;28;20445;-80
2022/12/07 01:05:31;;;;;;;84.13;41.47;;;;;;;7.12;99.68;94860.31;5112627;28;20810;-79
2022/12/07 01:07:58;;;;;;;79.57;41.77;;;;;;;7.09;99.76;94850.09;5112335;28;20451;-81
2022/12/07 01:10:27;;;;;;;73.93;40.70;;;;;;;7.15;100.00;94867.91;5112485;28;20449;-80
2022/12/07 01:12:54;;;;;;;74.43;42.40;;;;;;;7.19;100.00;94866.75;5112938;28;20523;-80
2022/12/07 01:15:21;;;;;;;82.60;42.80;;;;;;;7.24;100.00;94856.84;5112480;28;20942;-80
2022/12/07 01:17:48;;;;;;;63.60;40.40;;;;;;;7.23;100.00;94860.41;5112545;28;20818;-80
2022/12/07 01:20:15;;;;;;;56.97;38.43;;;;;;;7.23;100.00;94863.00;5112801;28;20448;-80
2022/12/07 01:22:43;;;;;;;63.40;32.50;;;;;;;7.22;100.00;94856.09;5112435;28;20472;-80
2022/12/07 01:25:12;;;;;;;54.20;31.83;;;;;;;7.25;100.00;94850.69;5112681;28;20453;-81
2022/12/07 01:27:40;;;;;;;61.50;34.67;;;;;;;7.25;99.96;94850.69;5112651;28;20534;-81
2022/12/07 01:30:08;;;;;;;60.30;31.80;;;;;;;7.29;99.89;94846.06;5112232;28;20438;-80
2022/12/07 01:32:35;;;;;;;52.57;30.07;;;;;;;7.32;99.78;94840.63;5112287;28;20489;-81
2022/12/07 01:35:02;;;;;;;48.20;28.03;;;;;;;7.35;99.20;94843.84;5112224;28;20442;-80
2022/12/07 01:37:35;;;;;;;40.67;27.67;;;;;;;7.35;99.16;94837.78;5112029;28;20948;-79
2022/12/07 01:40:02;;;;;;;46.37;30.27;;;;;;;7.33;98.69;94843.09;5112654;28;20543;-80
2022/12/07 01:42:29;;;;;;;49.33;30.20;;;;;;;7.22;98.83;94850.88;5112211;28;20457;-80
2022/12/07 01:45:41;;;;;;;45.00;28.30;;;;;;;7.19;99.45;94835.44;5111812;28;20467;-79
2022/12/07 01:48:13;;;;;;;43.00;27.73;;;;;;;7.17;100.00;94837.31;5032688;28;20449;-80
2022/12/07 01:50:41;;;;;;;47.23;27.70;;;;;;;7.15;100.00;94836.59;5016132;28;20454;-81
2022/12/07 01:53:11;;;;;;;45.57;23.87;;;;;;;7.18;100.00;94833.78;5032614;28;20449;-81
2022/12/07 01:55:42;;;;;;;45.53;28.53;;;;;;;7.19;99.86;94838.03;5032628;28;20541;-80
2022/12/07 01:58:10;;;;;;;50.23;25.40;;;;;;;7.21;99.99;94837.94;5032556;28;20444;-80
2022/12/07 02:00:37;;;;;;;48.77;26.60;;;;;;;7.21;99.46;94822.28;5032318;28;20970;-80
2022/12/07 02:03:08;;;;;;;52.07;32.77;;;;;;;7.23;100.00;94828.22;5032538;28;20438;-80
2022/12/07 02:05:39;;;;;;;56.27;33.10;;;;;;;7.26;99.66;94823.63;5032670;28;20910;-80
2022/12/07 02:08:06;;;;;;;60.33;35.73;;;;;;;7.29;100.00;94819.97;5032153;28;20453;-80
2022/12/07 02:10:33;;;;;;;56.47;34.73;;;;;;;7.34;99.43;94823.91;5032211;28;20458;-79
2022/12/07 02:13:05;;;;;;;58.97;29.27;;;;;;;7.37;99.34;94826.28;5032289;28;20442;-80
2022/12/07 02:15:42;;;;;;;43.20;25.40;;;;;;;7.32;99.11;94820.56;5032057;28;20471;-79
2022/12/07 02:18:17;;;;;;;34.10;22.27;;;;;;;7.25;98.51;94819.34;5032118;28;20448;-80
2022/12/07 02:20:55;;;;;;;40.00;22.67;;;;;;;7.15;98.99;94818.34;5032053;28;20487;-79
2022/12/07 02:23:41;;;;;;;37.70;23.90;;;;;;;7.13;98.51;94828.06;5114615;28;20449;-80
2022/12/07 02:26:38;;;;;;;36.90;22.87;;;;;;;7.13;98.44;94825.44;5115064;28;20491;-81
2022/12/07 02:29:17;;;;;;;41.37;23.30;;;;;;;7.12;98.86;94831.63;5114733;28;21009;-81
2022/12/07 02:31:54;;;;;;;45.47;25.10;;;;;;;7.11;99.12;94822.13;5114566;28;20487;-81
2022/12/07 02:34:31;;;;;;;38.73;26.37;;;;;;;7.10;99.64;94816.06;5114936;28;20441;-81
2022/12/07 02:37:05;;;;;;;44.47;25.73;;;;;;;7.13;100.00;94815.00;5114918;28;20448;-81
2022/12/07 02:39:41;;;;;;;48.67;28.00;;;;;;;7.17;99.51;94805.19;5114384;28;20452;-81
2022/12/07 02:42:15;;;;;;;36.70;25.60;;;;;;;7.18;100.00;94806.84;5114503;28;20441;-81
2022/12/07 02:44:44;;;;;;;41.23;25.20;;;;;;;7.16;99.55;94804.34;5114405;28;20935;-81
2022/12/07 02:47:15;;;;;;;37.60;24.63;;;;;;;7.12;99.96;94802.91;5114737;28;20444;-81
2022/12/07 02:49:42;;;;;;;49.53;25.60;;;;;;;7.16;99.63;94809.56;5114295;28;20475;-81
2022/12/07 02:52:09;;;;;;;45.37;25.87;;;;;;;7.18;99.77;94810.28;5114064;28;20477;-81
2022/12/07 02:54:36;;;;;;;42.20;26.47;;;;;;;7.23;99.44;94815.16;5114105;28;20449;-78
2022/12/07 02:57:16;;;;;;;43.80;24.60;;;;;;;7.23;99.29;94816.03;5113879;28;20923;-79
2022/12/07 02:59:59;;;;;;;40.93;26.90;;;;;;;7.25;98.82;94813.31;5080689;28;20502;-79
2022/12/07 03:02:36;;;;;;;46.67;26.67;;;;;;;7.23;99.40;94812.56;5114022;28;20810;-82
2022/12/07 03:05:14;;;;;;;47.13;28.63;;;;;;;7.22;99.07;94808.28;5113956;28;20450;-80
2022/12/07 03:07:50;;;;;;;55.50;30.20;;;;;;;7.22;99.25;94790.00;5061522;28;20437;-79
2022/12/07 03:10:23;;;;;;;42.37;27.47;;;;;;;7.15;98.72;94784.41;5113688;28;20959;-80
2022/12/07 03:13:01;;;;;;;43.63;30.67;;;;;;;7.05;99.15;94788.66;5113795;28;20481;-80
2022/12/07 03:15:34;;;;;;;54.57;29.27;;;;;;;7.05;99.53;94796.47;5113544;28;20454;-80
2022/12/07 03:18:04;;;;;;;43.80;27.30;;;;;;;7.02;99.48;94789.72;5114070;28;20450;-80
2022/12/07 03:20:34;;;;;;;43.43;27.53;;;;;;;7.02;100.00;94791.50;5113626;28;20950;-80
2022/12/07 03:23:01;;;;;;;49.97;28.73;;;;;;;7.03;99.64;94790.53;5113694;28;20970;-80
2022/12/07 03:25:29;;;;;;;49.00;28.77;;;;;;;7.01;99.54;94779.38;5113643;28;20463;-80
2022/12/07 03:28:01;;;;;;;51.00;27.90;;;;;;;6.99;100.00;94782.09;5113702;28;20444;-79
2022/12/07 03:30:35;;;;;;;48.13;27.60;;;;;;;7.04;99.59;94784.38;5113536;28;20448;-80
2022/12/07 03:33:08;;;;;;;43.97;26.43;;;;;;;7.06;98.75;94790.31;5113688;28;20489;-79
2022/12/07 03:35:41;;;;;;;44.70;27.30;;;;;;;7.03;98.61;94774.88;5113672;28;20472;-80
2022/12/07 03:38:18;;;;;;;51.37;28.80;;;;;;;7.05;99.43;94784.25;5113316;28;20495;-80
2022/12/07 03:40:51;;;;;;;56.40;37.50;;;;;;;7.07;99.18;94779.78;5113170;28;20450;-81
2022/12/07 03:43:19;;;;;;;70.73;41.30;;;;;;;7.04;98.69;94779.16;5113681;28;20518;-81
2022/12/07 03:45:57;;;;;;;79.73;43.40;;;;;;;6.86;98.50;94793.53;5113347;28;20441;-81
2022/12/07 03:48:29;;;;;;;66.20;38.50;;;;;;;6.60;100.00;94791.00;5078909;28;20444;-81
2022/12/07 03:51:05;;;;;;;64.10;39.00;;;;;;;6.49;100.00;94777.91;5113202;28;20448;-81
2022/12/07 03:53:39;;;;;;;50.10;28.20;;;;;;;6.45;100.00;94779.06;5113526;28;20489;-80
2022/12/07 03:56:07;;;;;;;49.13;27.27;;;;;;;6.50;100.00;94784.78;5113474;28;20444;-80
2022/12/07 03:58:35;;;;;;;50.47;27.33;;;;;;;6.54;100.00;94786.22;5113071;28;20456;-80
2022/12/07 04:01:03;;;;;;;41.93;24.90;;;;;;;6.58;100.00;94781.63;5113141;28;20445;-80
2022/12/07 04:03:30;;;;;;;40.33;21.93;;;;;;;6.63;100.00;94782.13;5111777;28;20615;-81
2022/12/07 04:05:58;;;;;;;42.10;24.37;;;;;;;6.21;100.00;94774.63;5111466;28;20456;-80
2022/12/07 04:08:25;;;;;;;40.77;22.50;;;;;;;6.31;100.00;94768.75;5110865;28;20487;-83
2022/12/07 04:10:52;;;;;;;40.13;24.57;;;;;;;6.25;100.00;94774.41;5113509;28;20938;-81
2022/12/07 04:13:18;;;;;;;37.23;23.60;;;;;;;6.21;100.00;94773.78;5105325;28;20502;-81
2022/12/07 04:15:45;;;;;;;42.50;26.63;;;;;;;6.25;100.00;94777.00;5096477;28;20456;-81
2022/12/07 04:18:13;;;;;;;42.80;24.00;;;;;;;6.33;100.00;94777.28;5107424;28;20441;-81
2022/12/07 04:20:41;;;;;;;43.67;26.17;;;;;;;6.40;100.00;94773.34;5096283;28;20456;-80
2022/12/07 04:23:07;;;;;;;40.90;23.70;;;;;;;6.47;100.00;94780.63;5114450;28;20475;-81
2022/12/07 04:25:34;;;;;;;41.23;23.47;;;;;;;6.53;100.00;94785.38;5113921;28;20449;-81
2022/12/07 04:28:01;;;;;;;35.40;23.80;;;;;;;6.56;100.00;94773.06;5113857;28;20501;-81
2022/12/07 04:30:28;;;;;;;38.70;23.23;;;;;;;6.55;100.00;94777.47;5114262;28;20564;-80
2022/12/07 04:32:55;;;;;;;39.07;23.50;;;;;;;6.57;100.00;94780.78;5113852;28;20548;-80
2022/12/07 04:35:23;;;;;;;38.03;23.77;;;;;;;6.61;100.00;94776.19;5114172;28;20443;-80
2022/12/07 04:37:50;;;;;;;36.83;24.57;;;;;;;6.63;100.00;94785.56;5113941;28;20448;-81
2022/12/07 04:40:17;;;;;;;42.73;25.90;;;;;;;6.69;100.00;94786.91;5114588;28;20456;-81
2022/12/07 04:42:43;;;;;;;36.57;24.40;;;;;;;6.72;100.00;94789.31;5116520;28;20444;-79
2022/12/07 04:45:11;;;;;;;42.93;27.93;;;;;;;6.75;100.00;94784.69;5114360;28;20454;-80
2022/12/07 04:47:37;;;;;;;49.47;29.63;;;;;;;6.79;100.00;94780.94;5111055;28;20532;-81
2022/12/07 04:50:05;;;;;;;40.67;27.17;;;;;;;6.83;100.00;94792.81;5093745;28;20458;-81
2022/12/07 04:52:33;;;;;;;44.47;28.00;;;;;;;6.87;100.00;94789.97;5093702;28;20991;-81
2022/12/07 04:55:00;;;;;;;47.77;32.57;;;;;;;6.86;100.00;94786.53;5052732;28;20439;-80
2022/12/07 04:57:27;;;;;;;57.77;37.67;;;;;;;6.87;99.63;94792.56;5102227;28;20443;-80
2022/12/07 04:59:54;;;;;;;60.37;39.33;;;;;;;6.86;99.68;94796.97;5041313;28;20935;-80
2022/12/07 05:02:20;;;;;;;67.43;39.37;;;;;;;6.87;99.94;94790.81;5055156;28;20938;-81
2022/12/07 05:04:47;;;;;;;72.93;41.20;;;;;;;6.90;99.66;94792.34;5061608;28;20441;-81
2022/12/07 05:07:18;;;;;;;58.00;36.90;;;;;;;6.93;99.20;94794.75;5113898;28;20454;-81
2022/12/07 05:09:46;;;;;;;61.60;34.70;;;;;;;6.95;99.92;94795.50;5113623;28;20456;-81
2022/12/07 05:12:13;;;;;;;63.77;32.90;;;;;;;6.90;99.79;94792.34;5113456;28;20491;-81
2022/12/07 05:14:41;;;;;;;52.83;31.20;;;;;;;6.90;99.23;94792.34;5113901;28;20437;-82
2022/12/07 05:17:08;;;;;;;42.63;27.07;;;;;;;6.84;98.76;94793.63;5113689;28;20454;-82
2022/12/07 05:19:34;;;;;;;44.10;25.37;;;;;;;6.45;98.53;94786.88;5113778;28;20444;-83
2022/12/07 05:22:01;;;;;;;40.60;25.30;;;;;;;6.22;99.51;94786.69;5116313;28;20480;-83
2022/12/07 05:24:28;;;;;;;49.50;27.43;;;;;;;6.24;100.00;94796.19;5117347;28;20531;-82
2022/12/07 05:26:56;;;;;;;47.27;28.57;;;;;;;6.30;100.00;94793.97;5064722;28;20936;-80
2022/12/07 05:29:23;;;;;;;40.93;25.80;;;;;;;6.27;100.00;94795.97;5116727;28;20588;-79
2022/12/07 05:31:50;;;;;;;45.83;27.37;;;;;;;6.18;100.00;94790.47;5116840;28;20486;-81
2022/12/07 05:34:17;;;;;;;49.10;27.90;;;;;;;6.18;100.00;94790.47;5117452;28;20447;-82
2022/12/07 05:36:43;;;;;;;48.63;27.80;;;;;;;6.21;100.00;94795.47;5116800;28;20947;-81
2022/12/07 05:39:11;;;;;;;43.70;28.07;;;;;;;6.27;100.00;94788.16;5117026;28;20458;-79
2022/12/07 05:44:24;;;;;;;39.03;27.20;;;;;;;6.36;100.00;94792.72;5116581;28;20543;-80
2022/12/07 05:46:50;;;;;;;47.33;27.23;;;;;;;6.39;100.00;94789.91;5117495;28;20448;-79
2022/12/07 05:49:17;;;;;;;56.23;30.00;;;;;;;6.37;100.00;94786.59;5129079;27;20450;-80
2022/12/07 05:51:45;;;;;;;66.20;32.27;;;;;;;6.39;100.00;94782.09;5124013;27;20444;-87
2022/12/07 05:54:11;;;;;;;59.80;28.77;;;;;;;6.36;100.00;94782.28;5091807;28;20437;-79
2022/12/07 05:56:38;;;;;;;54.53;33.60;;;;;;;6.35;100.00;94780.63;5116479;28;20537;-81
2022/12/07 06:01:57;;;;;;;61.30;32.67;;;;;;;6.35;100.00;94780.63;5053949;28;20481;-79
2022/12/07 06:04:25;;;;;;;68.30;37.30;;;;;;;6.34;100.00;94779.78;5053467;28;20458;-80
2022/12/07 06:06:52;;;;;;;64.20;36.90;;;;;;;6.38;100.00;94778.66;5048454;28;20456;-81
2022/12/07 06:09:20;;;;;;;66.60;37.70;;;;;;;6.40;100.00;94771.56;5045223;28;20456;-80
2022/12/07 06:14:31;;;;;;;60.60;35.33;;;;;;;6.37;100.00;94779.59;5029791;28;20444;-81
2022/12/07 06:17:01;;;;;;;52.47;35.20;;;;;;;6.40;100.00;94782.00;5041048;28;20466;-80
2022/12/07 06:19:28;;;;;;;55.17;33.67;;;;;;;6.42;100.00;94785.31;5031165;28;20821;-80
2022/12/07 06:21:55;;;;;;;54.70;35.73;;;;;;;6.46;100.00;94785.94;5052389;28;20483;-80
2022/12/07 06:24:22;;;;;;;58.53;35.37;;;;;;;6.47;100.00;94785.81;5032536;28;20448;-80
2022/12/07 06:26:49;;;;;;;53.60;33.37;;;;;;;6.55;100.00;94787.06;5051540;28;20517;-80
2022/12/07 06:29:17;;;;;;;59.50;32.57;;;;;;;6.63;100.00;94787.34;5051477;28;20482;-79
2022/12/07 06:31:44;;;;;;;68.73;31.97;;;;;;;6.67;100.00;94786.19;5002051;28;20443;-79
2022/12/07 06:34:16;;;;;;;55.17;31.47;;;;;;;6.77;100.00;94792.41;5051085;28;20961;-79
2022/12/07 06:36:42;;;;;;;65.30;34.47;;;;;;;6.82;100.00;94800.75;5001648;28;20447;-79
2022/12/07 06:39:09;;;;;;;90.47;44.13;;;;;;;6.83;100.00;94795.41;5083693;28;20444;-80
2022/12/07 06:41:37;;;;;;;79.23;41.57;;;;;;;6.91;100.00;94794.00;5093791;28;20542;-79
2022/12/07 06:44:05;;;;;;;102.00;40.90;;;;;;;6.97;100.00;94797.03;5093564;28;20537;-79
2022/12/07 06:46:32;;;;;;;76.20;39.73;;;;;;;6.99;100.00;94794.31;5093911;28;20465;-79
2022/12/07 06:48:58;;;;;;;86.00;36.47;;;;;;;7.03;100.00;94803.59;5093856;28;20449;-78
2022/12/07 06:51:27;;;;;;;54.47;30.00;;;;;;;7.09;99.69;94808.34;5094060;28;20453;-79
2022/12/07 06:53:54;;;;;;;63.57;31.50;;;;;;;7.14;99.47;94799.25;5094382;28;20490;-80
2022/12/07 06:56:20;;;;;;;64.67;27.87;;;;;;;7.16;100.00;94804.34;5058571;28;20441;-79
2022/12/07 06:58:47;;;;;;;56.73;27.20;;;;;;;7.21;100.00;94802.22;5093951;28;20445;-80
2022/12/07 07:01:16;;;;;;;48.57;28.40;;;;;;;7.20;100.00;94795.34;5093935;28;20454;-79
2022/12/07 07:03:43;;;;;;;58.43;28.77;;;;;;;7.29;100.00;94805.13;5094166;28;20500;-79
2022/12/07 07:06:10;;;;;;;51.30;30.17;;;;;;;7.31;100.00;94797.19;5094108;28;20453;-79
2022/12/07 07:08:39;;;;;;;50.10;30.20;;;;;;;7.40;100.00;94806.94;5094192;28;20461;-80
2022/12/07 07:11:08;;;;;;;61.23;29.70;;;;;;;7.49;99.96;94808.03;5093788;28;20792;-80
2022/12/07 07:13:35;;;;;;;43.83;26.63;;;;;;;7.56;100.00;94798.81;5093480;28;20487;-79
2022/12/07 07:16:02;;;;;;;48.83;25.93;;;;;;;7.63;100.00;94800.84;5093960;28;20446;-80
2022/12/07 07:18:29;;;;;;;38.43;25.10;;;;;;;7.72;100.00;94792.31;5093439;28;20443;-79
2022/12/07 07:20:56;;;;;;;51.43;27.87;;;;;;;7.78;100.00;94802.31;5093759;28;21005;-79
2022/12/07 07:23:24;;;;;;;54.10;31.50;;;;;;;7.85;100.00;94799.25;5093377;28;20450;-80
2022/12/07 07:25:52;;;;;;;50.37;30.33;;;;;;;7.91;100.00;94799.63;5057900;28;20439;-79
2022/12/07 07:28:19;;;;;;;52.67;31.50;;;;;;;7.92;100.00;94803.88;5093619;28;20959;-80
2022/12/07 07:30:46;;;;;;;62.20;33.43;;;;;;;7.86;100.00;94806.97;5093456;28;20450;-80
2022/12/07 07:33:13;;;;;;;67.43;36.50;;;;;;;7.85;100.00;94810.53;5093282;28;20479;-79
2022/12/07 07:35:40;;;;;;;66.90;37.10;;;;;;;7.89;100.00;94809.34;5057569;28;20810;-80
2022/12/07 07:38:07;;;;;;;53.37;35.97;;;;;;;7.94;100.00;94817.66;5092886;28;20909;-79
2022/12/07 07:40:34;;;;;;;55.17;34.53;;;;;;;7.97;100.00;94820.03;5093108;28;20455;-79
2022/12/07 07:43:03;;;;;;;64.33;37.80;;;;;;;8.05;100.00;94820.28;5092570;28;20443;-79
2022/12/07 07:45:29;;;;;;;53.77;29.27;;;;;;;8.00;100.00;94808.53;5056996;28;20443;-78
2022/12/07 07:47:56;;;;;;;57.60;33.27;;;;;;;7.99;100.00;94812.09;5092794;28;20832;-79
2022/12/07 07:50:23;;;;;;;73.80;38.23;;;;;;;7.96;100.00;94810.53;5092819;28;20461;-80
2022/12/07 07:52:50;;;;;;;67.50;35.03;;;;;;;8.04;100.00;94810.78;5092626;28;20482;-80
2022/12/07 07:55:17;;;;;;;58.70;32.03;;;;;;;8.08;100.00;94800.94;5092998;28;20447;-79
2022/12/07 07:57:43;;;;;;;58.67;34.50;;;;;;;8.01;100.00;94803.19;5092913;28;20462;-79
2022/12/07 08:00:15;;;;;;;54.80;30.97;;;;;;;8.03;100.00;94798.66;5092970;28;20456;-79
2022/12/07 08:02:43;;;;;;;43.10;26.47;;;;;;;8.03;100.00;94801.28;5092942;28;21022;-79
2022/12/07 08:05:11;;;;;;;46.03;26.57;;;;;;;8.10;100.00;94800.84;5092914;28;20530;-79
2022/12/07 08:07:38;;;;;;;37.60;23.63;;;;;;;8.22;100.00;94810.34;5092872;28;20446;-79
2022/12/07 08:10:06;;;;;;;44.33;25.70;;;;;;;8.33;99.87;94812.94;5093101;28;20444;-79
2022/12/07 08:12:37;;;;;;;45.43;25.83;;;;;;;8.27;98.97;94816.88;5092576;28;20479;-80
2022/12/07 08:15:04;;;;;;;44.60;26.63;;;;;;;8.32;99.27;94809.50;5092774;28;20530;-79
2022/12/07 08:17:34;;;;;;;62.37;31.23;;;;;;;8.31;99.58;94809.63;5093612;28;20444;-80
2022/12/07 08:20:00;;;;;;;46.37;25.53;;;;;;;8.29;99.31;94808.91;5093018;28;20440;-79
2022/12/07 08:22:27;;;;;;;41.60;26.00;;;;;;;8.22;99.36;94805.13;5092840;28;20989;-80
2022/12/07 08:24:54;;;;;;;46.73;26.27;;;;;;;8.17;99.92;94807.25;5093144;28;20439;-80
2022/12/07 08:27:23;;;;;;;50.07;26.03;;;;;;;8.14;100.00;94810.09;5092728;28;20447;-79
2022/12/07 08:29:50;;;;;;;39.03;25.23;;;;;;;8.21;100.00;94806.91;5092283;28;20440;-79
2022/12/07 08:32:17;;;;;;;46.77;26.83;;;;;;;8.24;100.00;94797.97;5092522;28;20463;-80
2022/12/07 08:34:45;;;;;;;35.10;24.97;;;;;;;8.30;100.00;94798.34;5092282;28;20689;-80
2022/12/07 08:37:12;;;;;;;47.37;27.00;;;;;;;8.41;99.85;94799.34;5092458;28;20478;-80
2022/12/07 08:39:39;;;;;;;50.93;25.70;;;;;;;8.40;99.29;94797.69;5092218;28;20451;-80
2022/12/07 08:42:05;;;;;;;47.53;26.67;;;;;;;8.48;99.04;94798.72;5092439;28;20435;-80
2022/12/07 08:44:32;;;;;;;54.87;27.80;;;;;;;8.55;99.41;94797.28;5092271;28;20443;-80
2022/12/07 08:47:03;;;;;;;52.47;28.37;;;;;;;8.73;99.15;94799.44;5040539;28;20432;-80
2022/12/07 08:49:36;;;;;;;47.27;27.70;;;;;;;8.76;98.56;94794.78;5092230;28;20447;-80
2022/12/07 08:52:06;;;;;;;46.43;27.43;;;;;;;8.81;97.71;94789.19;5092458;28;20448;-80
2022/12/07 08:54:35;;;;;;;44.27;25.80;;;;;;;8.80;97.44;94795.38;5092189;28;20480;-80
2022/12/07 08:57:02;;;;;;;49.20;25.47;;;;;;;8.85;97.67;94793.22;5096064;28;20467;-80
2022/12/07 08:59:29;;;;;;;38.27;24.80;;;;;;;8.89;97.74;94789.38;5096297;28;20930;-80
2022/12/07 09:01:56;;;;;;;52.30;28.90;;;;;;;8.98;97.34;94791.28;5098845;28;20436;-80
2022/12/07 09:04:23;;;;;;;44.90;27.00;;;;;;;9.07;97.44;94793.16;5060540;28;20436;-80
2022/12/07 09:06:50;;;;;;;47.10;28.13;;;;;;;9.11;95.84;94784.09;5096320;28;20455;-80
2022/12/07 09:09:19;;;;;;;40.63;25.50;;;;;;;9.20;96.25;94790.38;5044490;28;20455;-80
2022/12/07 09:11:45;;;;;;;43.43;25.27;;;;;;;9.29;96.12;94785.25;5095879;28;20444;-80
2022/12/07 09:14:13;;;;;;;44.00;25.23;;;;;;;9.40;95.21;94789.59;5096054;28;20487;-80
2022/12/07 09:16:42;;;;;;;54.13;26.77;;;;;;;9.45;95.23;94786.59;5096280;28;20476;-80
2022/12/07 09:19:09;;;;;;;46.00;27.73;;;;;;;9.56;94.51;94781.31;5096274;28;20458;-80
2022/12/07 09:21:36;;;;;;;44.17;27.00;;;;;;;9.62;94.16;94772.94;5096232;28;20526;-80
2022/12/07 09:24:03;;;;;;;47.07;27.90;;;;;;;9.69;93.25;94768.03;5095816;28;20763;-80
2022/12/07 09:26:31;;;;;;;58.83;27.00;;;;;;;9.70;92.39;94770.50;5095597;28;20447;-80
2022/12/07 09:28:58;;;;;;;42.07;25.77;;;;;;;9.56;91.93;94769.06;5096077;28;20438;-80
2022/12/07 09:31:25;;;;;;;49.43;27.07;;;;;;;9.61;92.61;94766.06;5095659;28;20977;-80
2022/12/07 09:33:55;;;;;;;44.00;26.70;;;;;;;9.67;93.02;94768.16;5095617;28;20483;-80
2022/12/07 09:36:21;;;;;;;47.50;25.93;;;;;;;9.70;92.41;94765.28;5095716;28;20476;-80
2022/12/07 09:38:48;;;;;;;49.60;28.00;;;;;;;9.65;91.44;94764.00;5095544;28;20843;-80
2022/12/07 09:41:16;;;;;;;47.30;25.13;;;;;;;9.66;91.64;94757.81;5095845;28;20946;-80
2022/12/07 09:43:45;;;;;;;46.37;26.70;;;;;;;9.64;92.25;94750.06;5095748;28;20570;-80
2022/12/07 09:46:15;;;;;;;44.53;25.57;;;;;;;9.68;92.34;94746.22;5095528;28;20509;-79
2022/12/07 09:48:44;;;;;;;42.03;24.30;;;;;;;9.59;91.72;94734.75;5095557;28;20448;-79
2022/12/07 09:51:16;;;;;;;45.77;26.37;;;;;;;9.55;91.67;94741.19;5095536;28;20440;-80
2022/12/07 09:53:43;;;;;;;45.87;26.40;;;;;;;9.54;92.69;94736.06;5096022;28;20542;-80
2022/12/07 09:56:13;;;;;;;46.90;25.50;;;;;;;9.50;92.94;94739.91;5095469;28;20449;-80
2022/12/07 09:58:40;;;;;;;48.60;26.10;;;;;;;9.45;93.50;94745.53;5096631;28;20519;-80
2022/12/07 10:01:14;;;;;;;55.47;26.83;;;;;;;9.43;93.85;94736.97;5096279;28;20448;-87
2022/12/07 10:03:52;;;;;;;51.30;29.33;;;;;;;9.46;93.92;94730.63;5096527;28;20443;-83
2022/12/07 10:06:19;;;;;;;51.03;26.43;;;;;;;9.49;94.19;94730.38;5095563;28;20452;-84
2022/12/07 10:08:46;;;;;;;48.23;27.60;;;;;;;9.54;93.38;94731.69;5096008;28;20448;-84
2022/12/07 10:11:14;;;;;;;47.10;27.93;;;;;;;9.63;93.86;94722.22;5096486;28;20522;-84
2022/12/07 10:13:44;;;;;;;46.13;26.10;;;;;;;9.68;93.17;94714.78;5097119;28;20468;-80
2022/12/07 10:16:33;;;;;;;44.60;27.03;;;;;;;9.58;92.86;94713.91;5114577;28;20447;-81
2022/12/07 10:19:19;;;;;;;43.50;26.47;;;;;;;9.58;92.32;94712.13;5117502;28;20451;-82
2022/12/07 13:46:22;;;;;;;42.37;21.33;;;;;;;10.93;87.79;94530.66;5013090;28;21314;-87
2022/12/07 13:48:50;;;;;;;42.70;20.77;;;;;;;11.02;86.93;94529.84;4980762;28;20805;-84
2022/12/07 13:51:20;;;;;;;29.77;18.60;;;;;;;11.00;87.79;94523.91;5033987;28;20859;-81
2022/12/07 13:53:51;;;;;;;26.17;17.93;;;;;;;10.94;87.62;94519.19;5031314;28;20488;-82
2022/12/07 13:56:21;;;;;;;34.10;18.40;;;;;;;10.93;88.21;94514.91;5025324;28;20519;-81
2022/12/07 13:58:48;;;;;;;26.10;17.77;;;;;;;10.97;87.47;94516.28;5035342;28;20456;-80
2022/12/07 14:01:15;;;;;;;31.77;17.90;;;;;;;10.99;87.78;94513.56;5034899;28;20516;-81
2022/12/07 14:03:44;;;;;;;36.90;18.67;;;;;;;10.96;87.35;94508.56;5033383;28;20476;-81
2022/12/07 14:06:18;;;;;;;38.33;17.77;;;;;;;10.96;87.66;94513.81;5034502;28;20454;-82
2022/12/07 14:08:45;;;;;;;44.10;26.80;;;;;;;10.84;87.83;94515.78;4997948;28;20445;-81
2022/12/07 14:11:17;;;;;;;38.40;25.43;;;;;;;10.81;88.33;94510.81;5033635;28;20818;-80
2022/12/07 14:13:53;;;;;;;41.70;26.70;;;;;;;10.87;87.30;94523.38;5033026;28;21054;-80
2022/12/07 14:16:25;;;;;;;46.60;24.93;;;;;;;10.91;87.84;94532.63;5034602;28;20445;-81
2022/12/07 14:18:54;;;;;;;45.17;28.33;;;;;;;10.95;87.52;94533.16;5032552;28;20487;-81
2022/12/07 14:21:23;;;;;;;45.33;29.27;;;;;;;10.97;88.03;94532.03;5034835;28;20947;-82
2022/12/07 14:24:16;;;;;;;53.60;28.60;;;;;;;10.96;87.36;94525.13;5034201;28;20528;-81
2022/12/07 14:26:43;;;;;;;43.97;27.73;;;;;;;10.96;87.46;94535.63;5034194;28;20527;-81
2022/12/07 14:29:35;;;;;;;53.73;31.33;;;;;;;10.92;86.61;94536.91;5034831;28;20450;-81
2022/12/07 14:32:22;;;;;;;47.17;27.80;;;;;;;10.92;87.90;94536.91;5034341;28;20792;-81
2022/12/07 14:35:01;;;;;;;57.40;29.70;;;;;;;10.76;88.08;94527.00;5033739;28;20569;-81
2022/12/07 14:37:30;;;;;;;57.90;25.87;;;;;;;10.72;87.67;94527.41;5034329;28;20440;-81
2022/12/07 14:39:57;;;;;;;50.63;30.27;;;;;;;10.69;89.17;94530.28;5034493;28;20452;-81
2022/12/07 14:42:28;;;;;;;49.03;28.40;;;;;;;10.67;88.29;94529.59;5034534;28;20563;-80
2022/12/07 14:44:55;;;;;;;48.63;29.20;;;;;;;10.64;88.62;94528.09;5000145;28;20462;-81
2022/12/07 14:47:21;;;;;;;55.80;27.60;;;;;;;10.60;89.31;94531.97;5033659;28;20507;-80
2022/12/07 14:49:48;;;;;;;54.50;26.80;;;;;;;10.58;88.98;94523.41;5034305;28;20438;-81
2022/12/07 14:52:20;;;;;;;74.37;27.00;;;;;;;10.48;88.85;94525.22;5034213;28;20437;-81
2022/12/07 14:54:47;;;;;;;46.37;25.90;;;;;;;10.46;89.50;94535.84;5033798;28;20482;-80
2022/12/07 14:57:14;;;;;;;61.80;33.40;;;;;;;10.44;89.73;94529.06;5033500;28;20460;-81
2022/12/07 14:59:41;;;;;;;65.50;34.53;;;;;;;10.42;89.84;94531.00;5033897;28;20443;-80
2022/12/07 15:02:10;;;;;;;61.73;33.07;;;;;;;10.38;89.05;94540.94;5015260;28;20802;-81
2022/12/07 15:04:37;;;;;;;73.53;33.47;;;;;;;10.36;89.30;94544.66;5034002;28;20460;-80